RJAN(METAR)
07/27 17:00
RJAN 270800Z 25003KT CAVOK 28/23 Q0997 RMK A2946=
戻る
トップページへ戻る
IMOC Co,.Ltd.